Time;durP1;ratioP1;P1;durP2;ratioP2;P2;SDS_P1;SDS_P2;PMS_P1;PMS_P2;Temp;Humidity;BMP_temperature;BMP_pressure;BME280_temperature;BME280_humidity;BME280_pressure;Samples;Min_cycle;Max_cycle;Signal;HPM_P1;HPM_P2
2023/04/13 00:01:21;;;;;;;;;0.80;0.00;;;;;6.21;77.22;98126.88;5095933;28;8880;-58
2023/04/13 00:03:48;;;;;;;;;0.00;0.00;;;;;6.23;76.88;98120.47;5096111;28;8832;-59
2023/04/13 00:06:18;;;;;;;;;0.00;0.00;;;;;6.28;77.26;98123.53;5096554;28;8837;-58
2023/04/13 00:08:46;;;;;;;;;0.20;0.20;;;;;6.30;76.79;98104.91;5095820;28;8883;-58
2023/04/13 00:11:15;;;;;;;;;0.00;0.00;;;;;6.34;77.13;98098.34;5096031;28;8830;-58
2023/04/13 00:13:46;;;;;;;;;0.00;0.00;;;;;6.37;77.04;98093.59;5098389;28;8821;-58
2023/04/13 00:16:13;;;;;;;;;0.00;0.00;;;;;6.41;76.64;98094.16;5100424;28;8858;-58
2023/04/13 00:18:41;;;;;;;;;0.00;0.00;;;;;6.40;76.43;98093.34;5099419;28;8822;-58
2023/04/13 00:21:09;;;;;;;;;0.00;0.00;;;;;6.44;76.68;98088.59;5099659;28;8944;-59
2023/04/13 00:23:37;;;;;;;;;0.00;0.00;;;;;6.49;76.38;98081.06;5099911;28;8834;-58
2023/04/13 00:26:04;;;;;;;;;0.00;0.00;;;;;6.52;76.38;98078.16;5099909;28;8822;-59
2023/04/13 00:28:32;;;;;;;;;0.00;0.00;;;;;6.57;76.28;98073.25;5099882;28;8852;-59
2023/04/13 00:31:00;;;;;;;;;0.00;0.00;;;;;6.61;76.17;98072.00;5100155;28;8972;-58
2023/04/13 00:33:28;;;;;;;;;0.00;0.00;;;;;6.68;75.90;98065.16;5099986;28;8899;-60
2023/04/13 00:35:56;;;;;;;;;0.00;0.00;;;;;6.73;75.59;98068.19;5099783;28;8830;-60
2023/04/13 00:38:26;;;;;;;;;0.00;0.00;;;;;6.77;75.65;98053.72;5099450;28;8845;-60
2023/04/13 00:40:53;;;;;;;;;0.00;0.00;;;;;6.75;75.24;98067.06;5099942;28;9578;-58
2023/04/13 00:43:21;;;;;;;;;0.00;0.00;;;;;6.77;75.02;98053.72;5099806;28;8861;-60
2023/04/13 00:45:49;;;;;;;;;0.00;0.00;;;;;6.82;75.15;98051.47;5099622;28;8836;-59
2023/04/13 00:48:17;;;;;;;;;0.00;0.00;;;;;6.84;75.21;98052.97;5099926;28;9511;-61
2023/04/13 00:50:45;;;;;;;;;0.00;0.00;;;;;6.87;74.69;98050.06;5099685;28;8845;-61
2023/04/13 00:53:13;;;;;;;;;0.00;0.00;;;;;6.91;74.36;98045.31;5099695;28;9527;-60
2023/04/13 00:55:41;;;;;;;;;0.00;0.00;;;;;6.94;74.71;98047.66;5099931;28;8814;-59
2023/04/13 00:58:09;;;;;;;;;0.00;0.00;;;;;6.99;74.23;98042.75;5099416;28;8806;-61
2023/04/13 01:00:37;;;;;;;;;0.00;0.00;;;;;7.01;74.46;98046.94;5099205;28;8954;-61
2023/04/13 01:03:06;;;;;;;;;0.00;0.00;;;;;7.07;74.35;98037.56;5099330;28;8861;-61
2023/04/13 01:05:34;;;;;;;;;0.00;0.00;;;;;7.13;73.99;98039.63;5099019;28;8826;-62
2023/04/13 01:08:02;;;;;;;;;0.00;0.00;;;;;7.18;73.78;98040.00;5099702;28;8829;-61
2023/04/13 01:10:30;;;;;;;;;0.00;0.00;;;;;7.23;73.77;98040.41;5099410;28;8822;-61
2023/04/13 01:12:58;;;;;;;;;0.00;0.00;;;;;7.24;74.05;98036.78;5099300;28;8837;-61
2023/04/13 01:15:26;;;;;;;;;0.00;0.00;;;;;7.26;73.88;98026.88;5099245;28;8841;-60
2023/04/13 01:17:55;;;;;;;;;0.00;0.00;;;;;7.29;73.28;98018.66;5099139;28;8834;-60
2023/04/13 01:20:24;;;;;;;;;0.00;0.00;;;;;7.30;73.22;98015.84;5099297;28;8821;-61
2023/04/13 01:22:53;;;;;;;;;0.00;0.00;;;;;7.32;73.42;98024.47;5099110;28;8822;-60
2023/04/13 01:25:21;;;;;;;;;0.00;0.00;;;;;7.31;73.34;98017.53;5098566;28;8838;-59
2023/04/13 01:27:50;;;;;;;;;0.00;0.00;;;;;7.29;73.61;98022.09;5098852;28;8952;-58
2023/04/13 01:30:18;;;;;;;;;0.00;0.00;;;;;7.28;73.42;98011.69;5098423;28;8838;-60
2023/04/13 01:32:46;;;;;;;;;0.00;0.00;;;;;7.27;73.86;98026.72;5098284;28;8822;-60
2023/04/13 01:35:13;;;;;;;;;0.00;0.00;;;;;7.25;73.34;98012.81;5098580;28;8828;-60
2023/04/13 01:37:41;;;;;;;;;3.20;0.60;;;;;7.21;73.97;98013.25;5098865;28;8887;-60
2023/04/13 01:40:11;;;;;;;;;0.00;0.00;;;;;7.16;73.73;98016.34;5098639;28;8817;-60
2023/04/13 01:42:39;;;;;;;;;0.00;0.00;;;;;7.14;73.93;98025.41;5099235;28;8891;-58
2023/04/13 01:45:09;;;;;;;;;0.00;0.00;;;;;7.11;73.88;98007.16;5098762;28;8815;-60
2023/04/13 01:47:37;;;;;;;;;0.00;0.00;;;;;7.10;73.59;98026.69;5098340;28;8826;-59
2023/04/13 01:50:04;;;;;;;;;1.00;0.00;;;;;7.05;73.98;98011.25;5097709;28;9535;-60
2023/04/13 01:52:32;;;;;;;;;0.00;0.00;;;;;6.97;74.62;98019.09;5098088;28;8833;-60
2023/04/13 01:54:59;;;;;;;;;0.00;0.00;;;;;6.88;74.65;98027.06;5097948;28;8887;-59
2023/04/13 01:57:28;;;;;;;;;0.00;0.00;;;;;6.79;75.27;98022.66;5097929;28;8802;-58
2023/04/13 01:59:56;;;;;;;;;0.00;0.00;;;;;6.71;75.63;98011.97;5098325;28;8919;-59
2023/04/13 02:02:24;;;;;;;;;0.00;0.00;;;;;6.64;75.73;98010.88;5098162;28;8822;-61
2023/04/13 02:04:52;;;;;;;;;0.00;0.00;;;;;6.61;75.75;98012.00;5097987;28;8815;-58
2023/04/13 02:07:19;;;;;;;;;0.00;0.00;;;;;6.59;75.78;98008.69;5098447;28;8830;-58
2023/04/13 02:09:47;;;;;;;;;0.00;0.00;;;;;6.60;75.89;98002.41;5097902;28;8821;-59
2023/04/13 02:12:15;;;;;;;;;0.00;0.00;;;;;6.67;75.93;97994.75;5097850;28;8879;-60
2023/04/13 02:14:43;;;;;;;;;0.00;0.00;;;;;6.74;75.63;98009.06;5098002;28;8814;-61
2023/04/13 02:17:11;;;;;;;;;0.00;0.00;;;;;6.81;75.34;98020.72;5098031;28;8849;-60
2023/04/13 02:19:38;;;;;;;;;0.00;0.00;;;;;6.84;75.18;98002.72;5097738;28;9483;-60
2023/04/13 02:22:07;;;;;;;;;0.40;0.40;;;;;6.85;75.02;98032.66;5097750;28;8814;-59
2023/04/13 02:24:35;;;;;;;;;0.20;0.00;;;;;6.88;75.30;98019.97;5097931;28;8820;-61
2023/04/13 02:27:03;;;;;;;;;0.00;0.00;;;;;6.95;74.81;98023.69;5097341;28;8822;-60
2023/04/13 02:29:30;;;;;;;;;0.00;0.00;;;;;7.00;74.91;98007.38;5097398;28;8849;-58
2023/04/13 02:31:58;;;;;;;;;0.00;0.00;;;;;7.04;74.68;98006.94;5097609;28;8895;-59
2023/04/13 02:34:26;;;;;;;;;0.00;0.00;;;;;7.10;74.62;98014.28;5097723;28;8852;-60
2023/04/13 02:36:54;;;;;;;;;0.00;0.00;;;;;7.17;74.73;98019.81;5096606;28;8884;-60
2023/04/13 02:39:22;;;;;;;;;0.00;0.00;;;;;7.19;74.54;98020.53;5097704;28;8830;-58
2023/04/13 02:41:50;;;;;;;;;0.00;0.00;;;;;7.20;74.24;98011.59;5097499;28;8834;-61
2023/04/13 02:44:17;;;;;;;;;0.00;0.00;;;;;7.22;74.50;98017.56;5097158;28;8818;-59
2023/04/13 02:46:46;;;;;;;;;0.00;0.00;;;;;7.28;74.18;98019.63;5096539;28;8857;-60
2023/04/13 02:49:13;;;;;;;;;0.00;0.00;;;;;7.35;73.69;98015.41;5097373;28;8831;-59
2023/04/13 02:51:41;;;;;;;;;0.00;0.00;;;;;7.40;73.68;98019.25;5097459;28;9518;-58
2023/04/13 02:54:09;;;;;;;;;0.00;0.00;;;;;7.44;73.35;98006.56;5096842;28;8864;-61
2023/04/13 02:56:36;;;;;;;;;0.00;0.00;;;;;7.46;73.58;98009.88;5096390;28;9475;-60
2023/04/13 02:59:05;;;;;;;;;0.60;0.00;;;;;7.50;72.92;97995.38;5096976;28;8887;-60
2023/04/13 03:01:32;;;;;;;;;0.00;0.00;;;;;7.54;72.95;98012.59;5097269;28;8853;-61
2023/04/13 03:04:01;;;;;;;;;0.00;0.00;;;;;7.59;73.45;98000.56;5096924;28;8822;-58
2023/04/13 03:06:30;;;;;;;;;0.00;0.00;;;;;7.61;72.76;98013.69;5096674;28;8848;-60
2023/04/13 03:08:58;;;;;;;;;0.00;0.00;;;;;7.60;72.82;97991.66;5097009;28;8845;-59
2023/04/13 03:11:26;;;;;;;;;0.00;0.00;;;;;7.65;72.52;97993.88;5096891;28;8899;-59
2023/04/13 03:13:53;;;;;;;;;0.00;0.00;;;;;7.65;72.48;98001.81;5096638;28;8903;-59
2023/04/13 03:16:21;;;;;;;;;0.00;0.00;;;;;7.65;72.38;97989.38;5096568;28;8841;-61
2023/04/13 03:18:50;;;;;;;;;0.00;0.00;;;;;7.65;72.62;97999.97;5097203;28;9476;-61
2023/04/13 03:21:17;;;;;;;;;0.00;0.00;;;;;7.62;72.17;98000.28;5096640;28;8914;-57
2023/04/13 03:23:46;;;;;;;;;0.00;0.00;;;;;7.58;72.22;97998.91;5096724;28;8854;-60
2023/04/13 03:26:13;;;;;;;;;0.00;0.00;;;;;7.58;72.26;98008.69;5096216;28;8806;-58
2023/04/13 03:28:41;;;;;;;;;0.00;0.00;;;;;7.55;72.03;98014.28;5096755;28;8814;-60
2023/04/13 03:31:09;;;;;;;;;0.00;0.00;;;;;7.55;72.85;98011.63;5096585;28;8846;-58
2023/04/13 03:33:37;;;;;;;;;0.00;0.00;;;;;7.52;72.85;98012.78;5096451;28;8846;-58
2023/04/13 03:36:05;;;;;;;;;0.00;0.00;;;;;7.51;72.88;98007.63;5096068;28;8830;-60
2023/04/13 03:38:32;;;;;;;;;0.20;0.20;;;;;7.45;72.96;98022.31;5096102;28;8829;-61
2023/04/13 03:41:00;;;;;;;;;0.00;0.00;;;;;7.38;73.27;98017.75;5096087;28;8821;-61
2023/04/13 03:43:28;;;;;;;;;0.00;0.00;;;;;7.34;73.28;98019.03;5096774;28;9549;-59
2023/04/13 03:45:55;;;;;;;;;0.00;0.00;;;;;7.30;73.43;98009.72;5095935;28;8826;-60
2023/04/13 03:48:23;;;;;;;;;3.00;3.00;;;;;7.27;73.48;98033.84;5095571;28;8821;-61
2023/04/13 03:50:51;;;;;;;;;0.00;0.00;;;;;7.21;73.87;98026.50;5095517;28;8837;-60
2023/04/13 03:53:19;;;;;;;;;0.00;0.00;;;;;7.13;73.80;98035.16;5095472;28;8865;-60
2023/04/13 03:55:47;;;;;;;;;0.00;0.00;;;;;7.05;74.82;98031.59;5094999;28;9554;-60
2023/04/13 03:58:15;;;;;;;;;0.00;0.00;;;;;6.97;75.12;98034.97;5094462;28;8861;-60
2023/04/13 04:00:43;;;;;;;;;0.00;0.00;;;;;6.93;74.92;98040.69;5094337;28;8869;-59
2023/04/13 04:03:10;;;;;;;;;0.00;0.00;;;;;6.90;75.43;98038.34;5095221;28;8830;-58
2023/04/13 04:05:38;;;;;;;;;0.00;0.00;;;;;6.86;75.55;98050.19;5095043;28;8863;-60
2023/04/13 04:08:06;;;;;;;;;0.00;0.00;;;;;6.86;75.40;98044.91;5095427;28;8996;-58
2023/04/13 04:10:33;;;;;;;;;0.00;0.00;;;;;6.84;75.50;98047.69;5095300;28;8822;-60
2023/04/13 04:13:02;;;;;;;;;0.00;0.00;;;;;6.85;75.79;98056.47;5095620;28;8822;-60
2023/04/13 04:15:29;;;;;;;;;0.00;0.00;;;;;6.86;75.50;98052.84;5095330;28;8903;-60
2023/04/13 04:17:58;;;;;;;;;0.00;0.00;;;;;6.90;75.67;98062.16;5095333;28;8903;-59
2023/04/13 04:20:25;;;;;;;;;0.00;0.00;;;;;6.95;75.40;98062.53;5095144;28;8915;-61
2023/04/13 04:22:53;;;;;;;;;0.00;0.00;;;;;7.00;75.99;98066.44;5094874;28;8872;-60
2023/04/13 04:25:21;;;;;;;;;0.00;0.00;;;;;7.03;75.52;98075.88;5094483;28;8872;-58
2023/04/13 04:27:49;;;;;;;;;0.00;0.00;;;;;7.06;75.40;98073.78;5095098;28;8830;-61
2023/04/13 04:30:17;;;;;;;;;0.00;0.00;;;;;7.10;75.30;98080.44;5095160;28;8869;-61
2023/04/13 04:32:46;;;;;;;;;0.00;0.00;;;;;7.12;75.18;98067.91;5095505;28;8829;-61
2023/04/13 04:35:15;;;;;;;;;0.00;0.00;;;;;7.11;75.27;98068.03;5095495;28;8838;-60
2023/04/13 04:37:43;;;;;;;;;0.00;0.00;;;;;7.10;75.34;98074.31;5095351;28;8841;-60
2023/04/13 04:40:12;;;;;;;;;0.00;0.00;;;;;7.09;75.66;98064.72;5094911;28;8842;-58
2023/04/13 04:42:40;;;;;;;;;0.60;0.00;;;;;7.11;75.38;98083.91;5096091;28;8845;-58
2023/04/13 04:45:08;;;;;;;;;0.00;0.00;;;;;7.13;75.59;98077.50;5095164;28;8822;-61
2023/04/13 04:47:42;;;;;;;;;0.00;0.00;;;;;7.15;75.58;98086.16;5095222;28;9500;-57
2023/04/13 04:50:11;;;;;;;;;0.20;0.00;;;;;7.19;75.90;98086.69;5095108;28;8826;-57
2023/04/13 04:52:39;;;;;;;;;0.00;0.00;;;;;7.19;75.59;98087.50;5094556;28;8837;-61
2023/04/13 04:55:06;;;;;;;;;0.00;0.00;;;;;7.20;75.54;98093.66;5094590;28;8897;-60
2023/04/13 04:57:36;;;;;;;;;0.00;0.00;;;;;7.20;75.31;98096.28;5094749;28;8893;-60
2023/04/13 05:00:08;;;;;;;;;0.00;0.00;;;;;7.19;76.05;98097.28;5097714;28;8850;-61
2023/04/13 05:02:36;;;;;;;;;0.00;0.00;;;;;7.18;75.86;98106.16;5098041;28;8825;-58
2023/04/13 05:05:03;;;;;;;;;0.00;0.00;;;;;7.15;76.00;98109.97;5098581;28;8908;-58
2023/04/13 05:07:31;;;;;;;;;0.20;0.00;;;;;7.15;75.95;98120.56;5098138;28;8852;-57
2023/04/13 05:09:59;;;;;;;;;0.00;0.00;;;;;7.14;76.09;98118.03;5098228;28;8818;-59
2023/04/13 05:12:27;;;;;;;;;0.20;0.20;;;;;7.08;76.04;98127.41;5098131;28;8881;-58
2023/04/13 05:14:55;;;;;;;;;0.00;0.00;;;;;7.04;76.22;98149.81;5098032;28;8826;-60
2023/04/13 05:17:24;;;;;;;;;0.00;0.00;;;;;6.98;76.69;98145.09;5097417;28;8841;-59
2023/04/13 05:19:52;;;;;;;;;0.00;0.00;;;;;6.95;76.75;98155.13;5096910;28;8834;-60
2023/04/13 05:22:20;;;;;;;;;0.00;0.00;;;;;6.92;76.87;98152.78;5096837;28;8854;-60
2023/04/13 05:24:48;;;;;;;;;0.00;0.00;;;;;6.89;76.67;98155.75;5097255;28;8826;-58
2023/04/13 05:27:16;;;;;;;;;0.00;0.00;;;;;6.89;76.96;98159.19;5097207;28;8814;-58
2023/04/13 05:29:43;;;;;;;;;0.00;0.00;;;;;6.87;77.31;98162.97;5097008;28;8850;-58
2023/04/13 05:32:14;;;;;;;;;0.00;0.00;;;;;6.88;77.12;98167.28;5097432;28;8976;-59
2023/04/13 05:34:42;;;;;;;;;0.00;0.00;;;;;6.88;77.35;98178.69;5097651;28;8814;-59
2023/04/13 05:37:10;;;;;;;;;0.00;0.00;;;;;6.90;77.07;98175.91;5097905;28;8872;-57
2023/04/13 05:39:38;;;;;;;;;0.00;0.00;;;;;6.91;77.24;98177.59;5097963;28;8818;-59
2023/04/13 05:42:07;;;;;;;;;0.00;0.00;;;;;6.90;77.54;98191.78;5098257;28;8837;-58
2023/04/13 05:44:34;;;;;;;;;0.80;0.00;;;;;6.89;78.05;98190.94;5097743;28;8826;-58
2023/04/13 05:47:02;;;;;;;;;0.00;0.00;;;;;6.88;77.55;98189.28;5097087;28;8830;-58
2023/04/13 05:49:30;;;;;;;;;0.00;0.00;;;;;6.90;77.79;98194.44;5097768;28;8834;-58
2023/04/13 05:51:59;;;;;;;;;0.00;0.00;;;;;6.95;77.76;98190.38;5097682;28;8841;-58
2023/04/13 05:54:27;;;;;;;;;0.00;0.00;;;;;7.04;77.48;98191.34;5096157;28;9495;-58
2023/04/13 05:56:55;;;;;;;;;0.00;0.00;;;;;7.14;77.37;98205.38;5095153;28;8847;-58
2023/04/13 05:59:23;;;;;;;;;1.20;1.20;;;;;7.22;77.15;98198.41;5094865;28;8834;-58
2023/04/13 06:01:51;;;;;;;;;0.00;0.00;;;;;7.31;77.19;98201.97;5094519;28;8810;-60
2023/04/13 06:04:21;;;;;;;;;0.60;0.00;;;;;7.44;76.92;98218.38;5095571;28;8829;-58
2023/04/13 06:06:49;;;;;;;;;0.00;0.00;;;;;7.55;76.53;98212.88;5095198;28;8877;-60
2023/04/13 06:09:17;;;;;;;;;0.40;0.40;;;;;7.68;75.87;98224.00;5095830;28;8833;-60
2023/04/13 06:11:45;;;;;;;;;0.00;0.00;;;;;7.76;75.81;98220.47;5096213;28;8922;-58
2023/04/13 06:14:14;;;;;;;;;0.00;0.00;;;;;7.85;75.63;98227.53;5095937;28;8842;-58
2023/04/13 06:16:41;;;;;;;;;0.00;0.00;;;;;7.90;75.39;98230.56;5095951;28;8825;-58
2023/04/13 06:19:11;;;;;;;;;1.00;1.00;;;;;7.87;75.53;98238.84;5096564;28;8845;-57
2023/04/13 06:21:38;;;;;;;;;0.00;0.00;;;;;7.84;75.44;98230.34;5096039;28;8915;-57
2023/04/13 06:24:06;;;;;;;;;0.00;0.00;;;;;7.84;75.55;98249.72;5095125;28;8825;-58
2023/04/13 06:26:34;;;;;;;;;0.00;0.00;;;;;7.95;75.53;98262.78;5095914;28;8864;-61
2023/04/13 06:29:02;;;;;;;;;0.80;0.80;;;;;8.12;75.19;98261.97;5095947;28;8846;-60
2023/04/13 06:31:30;;;;;;;;;0.20;0.20;;;;;8.25;74.66;98265.16;5096012;28;8842;-61
2023/04/13 06:33:59;;;;;;;;;0.00;0.00;;;;;8.33;74.43;98261.75;5095888;28;8826;-61
2023/04/13 06:36:26;;;;;;;;;0.00;0.00;;;;;8.38;74.41;98270.09;5096119;28;8856;-60
2023/04/13 06:38:54;;;;;;;;;0.00;0.00;;;;;8.42;74.03;98263.50;5096696;28;8830;-62
2023/04/13 06:41:22;;;;;;;;;1.00;1.00;;;;;8.46;74.29;98262.22;5096052;28;8988;-62
2023/04/13 06:43:50;;;;;;;;;3.00;0.00;;;;;8.52;73.94;98265.09;5096170;28;8910;-61
2023/04/13 06:46:18;;;;;;;;;0.00;0.00;;;;;8.55;74.20;98272.78;5095607;28;8814;-61
2023/04/13 06:48:48;;;;;;;;;0.00;0.00;;;;;8.55;73.94;98271.94;5095201;28;8899;-61
2023/04/13 06:51:16;;;;;;;;;1.00;1.00;;;;;8.54;74.11;98278.22;5095525;28;8834;-59
2023/04/13 06:53:44;;;;;;;;;2.60;1.40;;;;;8.52;74.00;98281.03;5095487;28;8865;-61
2023/04/13 06:56:12;;;;;;;;;0.25;0.25;;;;;8.53;74.18;98281.88;5095542;28;8872;-61
2023/04/13 06:58:39;;;;;;;;;0.80;0.80;;;;;8.59;73.98;98286.56;5094791;28;8841;-60
2023/04/13 07:01:08;;;;;;;;;1.00;1.00;;;;;8.65;73.88;98288.63;5095700;28;8838;-59
2023/04/13 07:03:36;;;;;;;;;0.50;0.50;;;;;8.80;73.61;98298.56;5095173;28;8887;-59
2023/04/13 07:06:04;;;;;;;;;1.50;1.50;;;;;8.94;73.07;98308.66;5096309;28;8842;-60
2023/04/13 07:08:34;;;;;;;;;0.75;0.75;;;;;9.05;72.83;98308.41;5096107;28;8826;-61
2023/04/13 07:11:02;;;;;;;;;1.00;1.00;;;;;9.14;72.65;98315.47;5095828;28;8814;-60
2023/04/13 07:13:30;;;;;;;;;1.00;1.00;;;;;9.20;72.34;98317.50;5095750;28;8854;-59
2023/04/13 07:15:58;;;;;;;;;0.00;0.00;;;;;9.22;72.78;98331.47;5095864;28;8826;-60
2023/04/13 07:18:26;;;;;;;;;2.50;2.00;;;;;9.25;72.43;98338.28;5096060;28;8822;-61
2023/04/13 07:20:54;;;;;;;;;0.25;0.25;;;;;9.19;72.12;98347.69;5095746;28;8864;-60
2023/04/13 07:23:22;;;;;;;;;1.00;1.00;;;;;9.13;72.41;98348.31;5095524;28;8830;-62
2023/04/13 07:25:50;;;;;;;;;1.00;1.00;;;;;9.11;72.39;98347.63;5095482;28;8824;-61
2023/04/13 07:28:18;;;;;;;;;1.00;1.00;;;;;9.10;72.43;98353.94;5095675;28;8845;-59
2023/04/13 07:30:46;;;;;;;;;0.25;0.25;;;;;9.07;72.58;98354.25;5095633;28;8842;-61
2023/04/13 07:33:14;;;;;;;;;0.75;0.75;;;;;9.05;72.40;98356.19;5094812;28;8834;-62
2023/04/13 07:35:42;;;;;;;;;1.50;0.50;;;;;9.02;72.53;98368.94;5094821;28;9590;-61
2023/04/13 07:38:10;;;;;;;;;0.25;0.25;;;;;8.97;72.79;98377.34;5095378;28;8834;-60
2023/04/13 07:40:38;;;;;;;;;1.50;1.00;;;;;8.93;72.70;98381.31;5094603;28;8846;-61
2023/04/13 07:43:06;;;;;;;;;1.00;1.00;;;;;8.89;72.87;98387.06;5095546;28;8821;-59
2023/04/13 07:45:34;;;;;;;;;0.00;0.00;;;;;8.92;72.40;98389.41;5095671;28;8814;-59
2023/04/13 07:48:02;;;;;;;;;1.00;1.00;;;;;8.96;72.75;98378.34;5094613;28;8822;-61
2023/04/13 07:50:30;;;;;;;;;2.00;2.00;;;;;9.07;72.41;98390.56;5094342;28;8826;-59
2023/04/13 07:52:58;;;;;;;;;1.00;1.00;;;;;9.15;72.45;98388.84;5095225;28;8844;-61
2023/04/13 07:55:26;;;;;;;;;3.00;3.00;;;;;9.21;71.99;98377.63;5094093;28;8850;-59
2023/04/13 07:57:54;;;;;;;;;0.25;0.00;;;;;9.28;72.12;98389.28;5095126;28;8898;-60
2023/04/13 08:00:22;;;;;;;;;1.50;1.50;;;;;9.45;71.47;98396.44;5094849;28;9757;-60
2023/04/13 08:02:50;;;;;;;;;2.00;1.00;;;;;9.62;71.05;98392.06;5093410;28;8830;-60
2023/04/13 08:05:19;;;;;;;;;1.00;1.00;;;;;9.79;70.57;98389.38;5093834;28;9503;-60
2023/04/13 08:07:47;;;;;;;;;0.00;0.00;;;;;9.92;70.46;98389.81;5094308;28;8962;-59
2023/04/13 08:10:15;;;;;;;;;0.00;0.00;;;;;10.07;69.74;98390.94;5094385;28;9496;-59
2023/04/13 08:12:43;;;;;;;;;0.00;0.00;;;;;10.21;69.41;98387.69;5093159;28;8857;-59
2023/04/13 08:15:11;;;;;;;;;1.00;1.00;;;;;10.43;69.31;98388.97;5093536;28;8818;-61
2023/04/13 08:17:40;;;;;;;;;3.00;2.50;;;;;10.62;68.89;98386.06;5093749;28;8830;-60
2023/04/13 08:20:08;;;;;;;;;0.75;0.75;;;;;10.62;68.57;98402.03;5092860;28;9421;-59
2023/04/13 08:22:36;;;;;;;;;1.00;1.00;;;;;10.61;68.32;98395.88;5093001;28;9504;-59
2023/04/13 08:25:05;;;;;;;;;2.00;1.00;;;;;10.60;67.98;98409.31;5093990;28;8850;-59
2023/04/13 08:27:33;;;;;;;;;1.00;1.00;;;;;10.68;67.62;98396.91;5093849;28;8841;-62
2023/04/13 08:30:02;;;;;;;;;0.00;0.00;;;;;10.74;67.68;98400.75;5092097;28;8919;-60
2023/04/13 08:32:30;;;;;;;;;2.00;1.00;;;;;10.84;67.56;98396.13;5091891;28;8832;-60
2023/04/13 08:34:58;;;;;;;;;1.00;1.00;;;;;10.95;67.51;98403.81;5095905;28;9777;-61
2023/04/13 08:37:26;;;;;;;;;1.00;0.75;;;;;10.98;67.05;98409.66;5097968;28;8976;-62
2023/04/13 08:39:59;;;;;;;;;1.00;1.00;;;;;10.96;66.77;98403.66;5097395;28;8821;-60
2023/04/13 08:42:29;;;;;;;;;0.50;0.50;;;;;10.86;66.78;98420.75;5099630;28;8834;-59
2023/04/13 08:44:59;;;;;;;;;1.00;0.50;;;;;10.82;66.75;98422.91;5097875;28;8853;-61
2023/04/13 08:47:29;;;;;;;;;0.25;0.25;;;;;10.87;66.75;98420.63;5097105;28;8832;-59
2023/04/13 08:49:57;;;;;;;;;1.00;1.00;;;;;10.84;66.31;98426.25;5097325;28;8830;-62
2023/04/13 08:52:25;;;;;;;;;0.00;0.00;;;;;10.79;66.65;98419.75;5092695;28;8822;-59
2023/04/13 08:54:53;;;;;;;;;1.00;1.00;;;;;10.82;66.41;98432.72;5096898;28;8949;-59
2023/04/13 08:57:21;;;;;;;;;1.00;1.00;;;;;10.93;65.71;98435.09;5097014;28;8826;-61
2023/04/13 08:59:49;;;;;;;;;0.25;0.00;;;;;11.03;65.90;98436.66;5097081;28;8839;-63
2023/04/13 09:02:17;;;;;;;;;1.00;1.00;;;;;11.00;65.74;98438.78;5096933;28;8895;-58
2023/04/13 09:04:49;;;;;;;;;1.00;1.00;;;;;10.88;66.16;98456.91;5096391;28;8972;-59
2023/04/13 09:07:17;;;;;;;;;0.50;0.50;;;;;10.81;66.53;98447.03;5096617;28;8838;-60
2023/04/13 09:09:46;;;;;;;;;1.00;1.00;;;;;10.79;66.67;98457.00;5096920;28;8849;-59
2023/04/13 09:12:13;;;;;;;;;0.50;0.50;;;;;10.77;66.32;98459.00;5098069;28;9828;-59
2023/04/13 09:14:42;;;;;;;;;1.00;1.00;;;;;10.76;66.21;98460.81;5097214;28;8846;-62
2023/04/13 09:17:10;;;;;;;;;2.00;1.00;;;;;10.79;66.62;98471.19;5096444;28;8830;-59
2023/04/13 09:19:38;;;;;;;;;2.50;1.00;;;;;10.71;66.27;98470.28;5095194;28;8838;-60
2023/04/13 09:22:07;;;;;;;;;0.00;0.00;;;;;10.65;66.45;98465.59;5095174;28;8930;-61
2023/04/13 09:24:34;;;;;;;;;0.00;0.00;;;;;10.71;66.47;98483.59;5095497;28;8821;-60
2023/04/13 09:27:03;;;;;;;;;0.50;0.50;;;;;10.78;65.81;98484.63;5095560;28;8826;-61
2023/04/13 09:29:31;;;;;;;;;1.00;1.00;;;;;10.78;66.25;98485.47;5095178;28;8822;-62
2023/04/13 09:31:59;;;;;;;;;2.00;1.00;;;;;10.81;65.94;98490.47;5096068;28;8829;-59
2023/04/13 09:34:27;;;;;;;;;1.50;1.00;;;;;10.92;65.89;98487.53;5096594;28;8853;-60
2023/04/13 09:36:55;;;;;;;;;1.50;1.50;;;;;10.97;65.65;98495.03;5097502;28;8830;-59
2023/04/13 09:39:28;;;;;;;;;1.00;1.00;;;;;11.01;65.26;98494.53;5097313;28;8818;-61
2023/04/13 09:41:56;;;;;;;;;0.00;0.00;;;;;11.02;65.45;98498.91;5096984;28;8837;-60
2023/04/13 09:44:26;;;;;;;;;0.25;0.25;;;;;11.01;65.54;98505.19;5095409;28;8837;-61
2023/04/13 09:46:55;;;;;;;;;1.00;1.00;;;;;11.03;65.23;98510.38;5095195;28;8838;-59
2023/04/13 09:49:24;;;;;;;;;1.00;1.00;;;;;11.05;65.25;98514.56;5094680;28;8842;-59
2023/04/13 09:51:52;;;;;;;;;1.50;1.00;;;;;11.05;65.26;98514.56;5094733;28;8837;-59
2023/04/13 09:54:20;;;;;;;;;0.75;0.75;;;;;11.01;65.86;98513.19;5094314;28;9870;-59
2023/04/13 09:56:51;;;;;;;;;0.75;0.75;;;;;10.99;65.44;98525.84;5093658;28;8826;-62
2023/04/13 09:59:20;;;;;;;;;1.00;1.00;;;;;11.04;65.73;98512.03;5093651;28;8818;-61
2023/04/13 10:01:48;;;;;;;;;1.00;1.00;;;;;11.06;65.28;98520.72;5094934;28;8823;-60
2023/04/13 10:04:16;;;;;;;;;1.00;1.00;;;;;11.01;65.52;98526.50;5094566;28;8957;-60
2023/04/13 10:06:45;;;;;;;;;1.00;1.00;;;;;11.14;65.38;98536.75;5094933;28;8833;-60
2023/04/13 10:09:13;;;;;;;;;0.00;0.00;;;;;11.51;64.38;98511.38;5095206;28;8972;-60
2023/04/13 10:11:41;;;;;;;;;2.00;1.00;;;;;11.87;63.87;98515.50;5095389;28;8834;-60
2023/04/13 10:14:09;;;;;;;;;2.50;2.00;;;;;12.10;63.03;98513.84;5095755;28;8838;-59
2023/04/13 10:16:37;;;;;;;;;0.00;0.00;;;;;12.17;63.10;98520.19;5095269;28;9523;-59
2023/04/13 10:19:05;;;;;;;;;1.00;1.00;;;;;12.16;63.29;98529.19;5094140;28;8880;-60
2023/04/13 10:21:34;;;;;;;;;1.00;1.00;;;;;12.17;62.88;98537.00;5093806;28;8849;-60
2023/04/13 10:24:02;;;;;;;;;1.00;1.00;;;;;12.40;63.13;98542.53;5094063;28;8822;-61
2023/04/13 10:26:38;;;;;;;;;0.75;0.75;;;;;12.61;62.46;98545.50;5094466;28;8849;-60
2023/04/13 10:29:06;;;;;;;;;0.00;0.00;;;;;13.08;61.15;98541.09;5094017;28;8882;-61
2023/04/13 10:31:36;;;;;;;;;0.00;0.00;;;;;13.69;60.15;98533.97;5094947;28;8850;-60
2023/04/13 10:34:05;;;;;;;;;1.00;1.00;;;;;14.60;58.68;98534.81;5095603;28;8826;-60
2023/04/13 10:36:33;;;;;;;;;1.00;1.00;;;;;14.95;58.23;98534.94;5095906;28;8853;-61
2023/04/13 10:39:01;;;;;;;;;1.00;1.00;;;;;14.61;58.93;98541.84;5095532;28;8802;-61
2023/04/13 10:41:29;;;;;;;;;0.50;0.50;;;;;14.20;59.69;98544.00;5095889;28;8838;-60
2023/04/13 10:43:57;;;;;;;;;1.00;1.00;;;;;13.97;60.20;98547.69;5095796;28;8956;-61
2023/04/13 10:46:25;;;;;;;;;0.00;0.00;;;;;13.81;60.66;98545.13;5095684;28;8837;-60
2023/04/13 10:48:53;;;;;;;;;0.50;0.50;;;;;13.77;60.83;98543.78;5095636;28;8830;-60
2023/04/13 10:51:22;;;;;;;;;1.00;1.00;;;;;13.80;61.12;98544.25;5095494;28;9507;-61
2023/04/13 10:53:50;;;;;;;;;0.50;0.50;;;;;13.74;60.66;98544.97;5095779;28;8830;-61
2023/04/13 10:56:17;;;;;;;;;1.00;1.00;;;;;13.50;61.49;98549.59;5095332;28;8842;-61
2023/04/13 10:58:46;;;;;;;;;1.00;1.00;;;;;13.17;61.86;98564.97;5095581;28;8841;-61
2023/04/13 11:01:15;;;;;;;;;2.00;2.00;;;;;12.88;62.01;98570.00;5095928;28;8885;-60
2023/04/13 11:03:43;;;;;;;;;1.00;1.00;;;;;12.70;62.84;98569.34;5095577;28;8838;-60
2023/04/13 11:06:30;;;;;;;;;1.00;1.00;;;;;12.52;62.97;98586.56;5094848;28;8833;-60
2023/04/13 11:09:01;;;;;;;;;0.50;0.50;;;;;12.30;62.91;98576.56;5094910;28;8854;-60
2023/04/13 11:11:30;;;;;;;;;0.50;0.50;;;;;11.97;63.86;98595.38;5095274;28;8826;-60
2023/04/13 11:13:58;;;;;;;;;1.00;0.00;;;;;11.60;63.42;98593.09;5095197;28;8959;-60
2023/04/13 11:16:26;;;;;;;;;1.00;1.00;;;;;11.57;64.15;98588.06;5094000;28;8952;-60
2023/04/13 11:18:55;;;;;;;;;1.00;1.00;;;;;11.84;63.39;98587.00;5093917;28;8852;-60
2023/04/13 11:21:24;;;;;;;;;3.00;3.00;;;;;12.24;62.22;98585.22;5095188;28;8822;-60
2023/04/13 11:23:52;;;;;;;;;1.00;1.00;;;;;12.49;62.07;98587.75;5094835;28;8826;-60
2023/04/13 11:26:20;;;;;;;;;2.50;2.50;;;;;12.51;61.76;98587.56;5095044;28;8806;-61
2023/04/13 11:28:48;;;;;;;;;2.00;1.00;;;;;12.57;62.15;98582.41;5093674;28;8965;-60
2023/04/13 11:31:16;;;;;;;;;2.00;2.00;;;;;12.76;61.45;98586.56;5092992;28;8834;-60
2023/04/13 11:33:44;;;;;;;;;1.00;1.00;;;;;12.90;60.95;98594.72;5093687;28;8830;-60
2023/04/13 11:36:13;;;;;;;;;1.50;1.00;;;;;12.98;61.06;98591.25;5093840;28;8916;-60
2023/04/13 11:38:42;;;;;;;;;1.00;1.00;;;;;13.21;60.43;98597.53;5093896;28;8842;-60
2023/04/13 11:41:11;;;;;;;;;2.50;2.50;;;;;14.16;58.35;98590.03;5074094;28;8844;-60
2023/04/13 11:43:44;;;;;;;;;1.00;1.00;;;;;14.67;57.40;98584.81;5073494;28;8860;-60
2023/04/13 11:46:14;;;;;;;;;3.00;3.00;;;;;14.71;56.96;98593.34;5072355;28;8867;-60
2023/04/13 11:48:43;;;;;;;;;2.00;2.00;;;;;14.36;57.39;98583.25;5072143;28;8832;-60
2023/04/13 11:51:11;;;;;;;;;2.00;2.00;;;;;14.03;58.69;98595.16;5072691;28;9502;-60
2023/04/13 11:53:39;;;;;;;;;2.00;2.00;;;;;14.15;58.12;98599.06;5072161;28;8839;-61